createdAt,value
2022-12-07T00:01:22.092Z,3.70
2022-12-07T00:03:52.348Z,3.60
2022-12-07T00:06:21.293Z,3.60
2022-12-07T00:08:50.485Z,3.50
2022-12-07T00:11:20.471Z,3.50
2022-12-07T00:13:54.172Z,3.50
2022-12-07T00:16:24.031Z,3.40
2022-12-07T00:18:52.531Z,3.40
2022-12-07T00:21:23.371Z,3.30
2022-12-07T00:23:52.582Z,3.20
2022-12-07T00:26:22.421Z,3.20
2022-12-07T00:28:53.765Z,3.30
2022-12-07T00:31:24.016Z,3.20
2022-12-07T00:33:52.640Z,3.30
2022-12-07T00:36:26.595Z,3.30
2022-12-07T00:38:55.682Z,3.20
2022-12-07T00:41:25.751Z,3.10
2022-12-07T00:43:55.932Z,3.10
2022-12-07T00:46:24.857Z,3.00
2022-12-07T00:48:54.102Z,2.90
2022-12-07T00:51:24.269Z,2.80
2022-12-07T00:53:52.975Z,2.70
2022-12-07T00:56:23.694Z,2.70
2022-12-07T00:58:55.180Z,2.60
2022-12-07T01:01:23.290Z,2.60
2022-12-07T01:03:51.947Z,2.60
2022-12-07T01:06:22.149Z,2.60
2022-12-07T01:08:50.449Z,2.50
2022-12-07T01:11:21.468Z,2.50
2022-12-07T01:13:51.643Z,2.50
2022-12-07T01:16:22.284Z,2.50
2022-12-07T01:18:52.046Z,2.50
2022-12-07T01:21:22.482Z,2.40
2022-12-07T01:23:51.447Z,2.40
2022-12-07T01:26:21.734Z,2.30
2022-12-07T01:28:50.114Z,2.30
2022-12-07T01:31:21.716Z,2.30
2022-12-07T01:33:51.384Z,2.30
2022-12-07T01:36:23.952Z,2.20
2022-12-07T01:38:53.912Z,2.20
2022-12-07T01:52:59.078Z,2.20
2022-12-07T01:55:28.417Z,2.10
2022-12-07T01:57:57.748Z,2.10
2022-12-07T02:00:26.313Z,2.10
2022-12-07T02:02:59.194Z,2.00
2022-12-07T02:05:28.321Z,2.00
2022-12-07T02:07:59.399Z,2.00
2022-12-07T02:10:29.729Z,2.10
2022-12-07T02:13:00.962Z,2.20
2022-12-07T02:15:40.486Z,2.20
2022-12-07T02:18:15.838Z,2.20
2022-12-07T02:20:48.302Z,2.00
2022-12-07T02:23:59.008Z,2.00
2022-12-07T02:27:11.826Z,2.00
2022-12-07T02:29:47.591Z,2.00
2022-12-07T02:32:20.599Z,2.00
2022-12-07T02:34:52.973Z,1.90
2022-12-07T02:37:31.416Z,1.90
2022-12-07T02:40:03.111Z,1.90
2022-12-07T02:42:36.031Z,1.90
2022-12-07T02:45:08.029Z,1.80
2022-12-07T02:47:38.162Z,1.80
2022-12-07T02:50:07.927Z,1.80
2022-12-07T02:52:35.991Z,1.80
2022-12-07T02:55:05.600Z,1.80
2022-12-07T02:57:50.686Z,1.80
2022-12-07T03:08:30.542Z,1.60
2022-12-07T03:11:01.056Z,1.60
2022-12-07T03:13:34.374Z,1.60
2022-12-07T03:16:07.293Z,1.60
2022-12-07T03:18:40.910Z,1.70
2022-12-07T03:21:13.595Z,1.80
2022-12-07T03:23:46.838Z,1.80
2022-12-07T03:26:18.490Z,1.90
2022-12-07T03:28:52.223Z,1.80
2022-12-07T03:31:23.996Z,1.80
2022-12-07T03:33:59.915Z,1.80
2022-12-07T03:36:31.123Z,1.90
2022-12-07T03:39:11.149Z,2.00
2022-12-07T03:41:45.008Z,2.10
2022-12-07T03:44:14.665Z,2.20
2022-12-07T03:46:46.956Z,2.20
2022-12-07T03:49:24.283Z,2.30
2022-12-07T03:51:58.608Z,2.40
2022-12-07T03:54:34.034Z,2.50
2022-12-07T03:57:03.917Z,2.60
2022-12-07T03:59:32.715Z,2.70
2022-12-07T04:02:06.043Z,2.70
2022-12-07T04:04:35.128Z,2.80
2022-12-07T04:07:03.276Z,2.90
2022-12-07T04:09:32.729Z,2.90
2022-12-07T04:12:00.840Z,2.80
2022-12-07T04:14:28.886Z,2.70
2022-12-07T04:16:58.939Z,2.70
2022-12-07T04:19:29.166Z,2.70
2022-12-07T04:21:57.608Z,2.70
2022-12-07T04:24:26.295Z,2.70
2022-12-07T04:26:56.195Z,2.70
2022-12-07T04:29:24.598Z,2.60
2022-12-07T04:31:53.512Z,2.60
2022-12-07T04:34:21.952Z,2.50
2022-12-07T04:36:50.306Z,2.40
2022-12-07T04:39:22.479Z,2.30
2022-12-07T04:41:51.000Z,2.30
2022-12-07T04:44:21.383Z,2.30
2022-12-07T04:46:49.850Z,2.20
2022-12-07T04:49:18.830Z,2.20
2022-12-07T04:51:47.726Z,2.30
2022-12-07T04:54:17.196Z,2.30
2022-12-07T04:56:45.539Z,2.40
2022-12-07T04:59:14.441Z,2.50
2022-12-07T05:01:44.150Z,2.60
2022-12-07T05:04:12.512Z,2.70
2022-12-07T05:06:40.740Z,2.70
2022-12-07T05:09:09.385Z,2.70
2022-12-07T05:11:40.480Z,2.80
2022-12-07T05:14:14.157Z,2.80
2022-12-07T05:16:45.112Z,2.80
2022-12-07T05:19:13.942Z,2.80
2022-12-07T05:21:42.233Z,2.80
2022-12-07T05:24:13.711Z,2.80
2022-12-07T05:26:42.261Z,2.90
2022-12-07T05:29:13.191Z,2.90
2022-12-07T05:31:41.560Z,2.90
2022-12-07T05:34:11.216Z,2.80
2022-12-07T05:36:39.336Z,2.80
2022-12-07T05:39:08.226Z,2.80
2022-12-07T05:41:53.786Z,2.70
2022-12-07T05:44:21.836Z,2.60
2022-12-07T05:46:49.909Z,2.50
2022-12-07T05:49:19.520Z,2.50
2022-12-07T05:51:47.586Z,2.40
2022-12-07T05:54:15.677Z,2.40
2022-12-07T05:56:43.781Z,2.40
2022-12-07T05:59:28.711Z,2.30
2022-12-07T06:01:58.970Z,2.30
2022-12-07T06:04:30.716Z,2.30
2022-12-07T06:06:59.176Z,2.30
2022-12-07T06:09:28.806Z,2.30
2022-12-07T06:12:14.236Z,2.20
2022-12-07T06:14:42.528Z,2.20
2022-12-07T06:17:10.762Z,2.20
2022-12-07T06:19:40.458Z,2.20
2022-12-07T06:22:10.090Z,2.10
2022-12-07T06:24:38.166Z,2.10
2022-12-07T06:27:06.932Z,2.00
2022-12-07T06:29:35.067Z,1.90
2022-12-07T06:32:03.272Z,2.00
2022-12-07T06:42:53.060Z,2.40
2022-12-07T06:45:22.422Z,2.60
2022-12-07T06:47:50.898Z,2.70
2022-12-07T06:50:19.406Z,2.70
2022-12-07T06:52:47.508Z,2.60
2022-12-07T06:55:15.731Z,2.50
2022-12-07T06:57:43.855Z,2.50
2022-12-07T07:00:19.895Z,2.50
2022-12-07T07:02:51.197Z,2.40
2022-12-07T07:05:19.239Z,2.50
2022-12-07T07:08:20.174Z,2.50
2022-12-07T07:10:36.038Z,2.60
2022-12-07T07:13:04.743Z,2.70
2022-12-07T07:15:32.924Z,2.80
2022-12-07T07:18:07.691Z,2.80
2022-12-07T07:20:36.710Z,2.80
2022-12-07T07:23:04.880Z,2.70
2022-12-07T07:25:34.065Z,2.60
2022-12-07T07:28:02.495Z,2.50
2022-12-07T07:30:30.704Z,2.50
2022-12-07T07:32:59.611Z,2.50
2022-12-07T07:35:29.390Z,2.50
2022-12-07T07:37:57.647Z,2.50
2022-12-07T07:40:26.413Z,2.50
2022-12-07T07:42:56.235Z,2.50
2022-12-07T07:45:25.457Z,2.50
2022-12-07T07:47:54.049Z,2.60
2022-12-07T07:50:22.524Z,2.70
2022-12-07T07:52:52.181Z,2.70
2022-12-07T07:55:20.397Z,2.70
2022-12-07T07:57:54.293Z,2.70
2022-12-07T08:00:23.666Z,2.60
2022-12-07T08:02:51.810Z,2.70
2022-12-07T08:05:20.013Z,2.60
2022-12-07T08:07:48.244Z,2.60
2022-12-07T08:10:17.703Z,2.50
2022-12-07T08:13:03.261Z,2.50
2022-12-07T08:15:32.728Z,2.50
2022-12-07T08:18:01.066Z,2.50
2022-12-07T08:20:31.640Z,2.50
2022-12-07T08:22:59.704Z,2.50
2022-12-07T08:25:29.613Z,2.50
2022-12-07T08:27:57.719Z,2.60
2022-12-07T08:30:28.468Z,2.60
2022-12-07T08:32:56.538Z,2.70
2022-12-07T08:35:24.645Z,2.90
2022-12-07T08:37:52.741Z,3.50
2022-12-07T08:40:22.118Z,4.20
2022-12-07T08:42:54.720Z,4.80
2022-12-07T08:45:27.374Z,5.00
2022-12-07T08:48:02.182Z,5.40
2022-12-07T08:50:30.533Z,5.30
2022-12-07T08:53:01.107Z,5.10
2022-12-07T08:55:30.907Z,4.80
2022-12-07T08:58:02.209Z,4.80
2022-12-07T09:00:30.258Z,4.50
2022-12-07T09:02:58.332Z,4.40
2022-12-07T09:05:26.649Z,4.30
2022-12-07T09:07:59.602Z,4.20
2022-12-07T09:10:27.986Z,4.10
2022-12-07T09:12:56.097Z,4.20
2022-12-07T09:15:25.558Z,4.30
2022-12-07T09:17:54.201Z,4.40
2022-12-07T09:20:27.611Z,4.60
2022-12-07T09:22:56.236Z,4.80
2022-12-07T09:25:24.464Z,4.70
2022-12-07T09:27:58.719Z,4.80
2022-12-07T09:30:29.213Z,4.90
2022-12-07T09:32:58.246Z,5.00
2022-12-07T09:35:27.450Z,4.90
2022-12-07T09:37:55.735Z,4.90
2022-12-07T09:40:25.301Z,4.80
2022-12-07T09:42:55.979Z,4.70
2022-12-07T09:45:26.637Z,4.70
2022-12-07T09:47:56.272Z,4.70
2022-12-07T09:50:28.523Z,4.80
2022-12-07T09:53:05.306Z,4.80
2022-12-07T09:55:33.862Z,4.80
2022-12-07T09:58:01.939Z,4.90
2022-12-07T10:00:31.628Z,4.90
2022-12-07T10:03:02.298Z,4.90
2022-12-07T10:05:33.205Z,4.90
2022-12-07T10:08:01.328Z,4.90
2022-12-07T10:10:38.085Z,5.00
2022-12-07T10:13:08.415Z,5.20
2022-12-07T10:15:48.885Z,5.20
2022-12-07T10:18:27.842Z,5.40
2022-12-07T10:21:11.991Z,5.40
2022-12-07T10:23:41.937Z,5.40
2022-12-07T10:26:29.679Z,5.50
2022-12-07T10:29:00.612Z,5.60
2022-12-07T10:31:28.974Z,5.70
2022-12-07T10:34:00.709Z,5.70
2022-12-07T10:36:36.275Z,5.70
2022-12-07T10:39:12.816Z,5.90
2022-12-07T10:41:56.115Z,5.90
2022-12-07T10:44:26.228Z,5.90
2022-12-07T10:47:17.078Z,6.00
2022-12-07T11:05:20.380Z,5.60
2022-12-07T11:07:57.239Z,5.60
2022-12-07T11:10:28.661Z,5.80
2022-12-07T11:13:29.055Z,5.80
2022-12-07T11:16:18.365Z,5.90
2022-12-07T11:18:57.757Z,6.00
2022-12-07T11:21:34.623Z,6.00
2022-12-07T11:24:07.620Z,6.10
2022-12-07T11:26:50.381Z,6.20
2022-12-07T11:29:36.823Z,6.20
2022-12-07T11:32:20.199Z,6.20
2022-12-07T11:35:01.311Z,6.20
2022-12-07T11:37:38.178Z,6.20
2022-12-07T11:40:19.241Z,6.20
2022-12-07T11:42:53.617Z,6.10
2022-12-07T11:45:25.562Z,6.00
2022-12-07T11:48:00.047Z,5.90
2022-12-07T11:50:34.415Z,5.80
2022-12-07T11:53:07.620Z,5.80
2022-12-07T11:55:47.744Z,5.80
2022-12-07T11:58:36.104Z,5.90
2022-12-07T12:01:16.524Z,6.10
2022-12-07T12:03:52.825Z,6.20
2022-12-07T12:06:22.676Z,6.20
2022-12-07T12:15:11.497Z,6.50
2022-12-07T12:18:09.209Z,6.60
2022-12-07T12:20:43.384Z,6.60
2022-12-07T12:23:17.937Z,6.70
2022-12-07T12:25:50.247Z,6.80
2022-12-07T12:28:26.481Z,6.90
2022-12-07T12:31:14.705Z,6.90
2022-12-07T12:33:46.929Z,6.90
2022-12-07T12:36:24.727Z,6.90
2022-12-07T12:39:08.944Z,6.70
2022-12-07T12:42:10.223Z,6.60
2022-12-07T12:45:20.452Z,6.70
2022-12-07T12:47:57.922Z,6.60
2022-12-07T12:50:28.402Z,6.60
2022-12-07T12:53:23.174Z,6.70
2022-12-07T12:56:18.531Z,6.80
2022-12-07T12:58:49.654Z,6.90
2022-12-07T13:01:43.182Z,6.90
2022-12-07T13:04:23.718Z,6.90
2022-12-07T13:06:52.485Z,6.70
2022-12-07T13:09:24.511Z,6.70
2022-12-07T13:12:03.129Z,6.60
2022-12-07T13:14:56.942Z,6.40
2022-12-07T13:18:06.576Z,6.20
2022-12-07T13:20:55.374Z,6.10
2022-12-07T13:23:35.028Z,6.00
2022-12-07T13:26:19.172Z,6.00
2022-12-07T13:28:49.465Z,5.90
2022-12-07T13:31:35.191Z,5.90
2022-12-07T13:34:04.184Z,5.90
2022-12-07T13:36:36.912Z,5.80
2022-12-07T13:39:19.943Z,5.80
2022-12-07T13:41:52.771Z,5.70
2022-12-07T13:44:21.678Z,5.70
2022-12-07T13:46:59.712Z,5.70
2022-12-07T13:49:30.369Z,5.80
2022-12-07T13:52:16.859Z,5.70
2022-12-07T13:54:49.792Z,5.70
2022-12-07T13:57:18.210Z,5.60
2022-12-07T13:59:46.520Z,5.60
2022-12-07T14:02:23.205Z,5.50
2022-12-07T14:04:52.874Z,5.50
2022-12-07T14:07:23.675Z,5.40
2022-12-07T14:09:59.993Z,5.30
2022-12-07T14:12:29.694Z,5.20
2022-12-07T14:14:58.705Z,5.20
2022-12-07T14:17:29.739Z,5.20
2022-12-07T14:20:00.483Z,5.30
2022-12-07T14:22:31.454Z,5.40
2022-12-07T14:25:20.998Z,5.40
2022-12-07T14:27:57.061Z,5.40
2022-12-07T14:30:27.180Z,5.50
2022-12-07T14:33:00.378Z,5.50
2022-12-07T14:35:29.407Z,5.60
2022-12-07T14:37:57.713Z,5.60
2022-12-07T14:40:28.398Z,5.70
2022-12-07T14:43:00.667Z,5.80
2022-12-07T14:45:28.771Z,5.80
2022-12-07T14:53:46.475Z,5.70
2022-12-07T14:56:16.842Z,5.70
2022-12-07T14:58:44.871Z,5.70
2022-12-07T15:01:12.901Z,5.70
2022-12-07T15:03:42.424Z,5.60
2022-12-07T15:06:16.482Z,5.60
2022-12-07T15:08:45.425Z,5.60
2022-12-07T15:11:15.366Z,5.40
2022-12-07T15:13:57.392Z,5.40
2022-12-07T15:16:25.516Z,5.30
2022-12-07T15:19:26.349Z,5.20
2022-12-07T15:21:43.973Z,5.20
2022-12-07T15:24:12.938Z,5.20
2022-12-07T15:26:42.458Z,5.10
2022-12-07T15:29:10.893Z,5.10
2022-12-07T15:31:55.040Z,5.00
2022-12-07T15:34:27.638Z,5.10
2022-12-07T15:36:55.926Z,5.10
2022-12-07T15:39:23.997Z,5.10
2022-12-07T15:41:52.098Z,5.10
2022-12-07T15:44:37.420Z,5.10
2022-12-07T15:47:06.513Z,5.00
2022-12-07T15:49:35.994Z,5.00
2022-12-07T15:52:04.183Z,4.90
2022-12-07T15:54:33.675Z,4.90
2022-12-07T15:57:01.854Z,4.90
2022-12-07T15:59:30.670Z,4.80
2022-12-07T16:01:58.804Z,4.80
2022-12-07T16:04:28.676Z,4.70
2022-12-07T16:06:58.483Z,4.70
2022-12-07T16:09:26.542Z,4.70
2022-12-07T16:11:54.832Z,4.70
2022-12-07T16:14:23.060Z,4.60
2022-12-07T16:16:51.556Z,4.50
2022-12-07T16:19:19.699Z,4.50
2022-12-07T16:21:47.777Z,4.40
2022-12-07T16:24:17.467Z,4.30
2022-12-07T16:26:49.979Z,4.30
2022-12-07T16:29:19.857Z,4.30
2022-12-07T16:31:48.172Z,4.30
2022-12-07T16:34:16.526Z,4.40
2022-12-07T16:37:04.938Z,4.40
2022-12-07T16:39:35.416Z,4.40
2022-12-07T16:42:03.589Z,4.40
2022-12-07T16:44:32.561Z,4.40
2022-12-07T16:47:01.861Z,4.40
2022-12-07T16:49:30.412Z,4.40
2022-12-07T16:54:48.178Z,4.30
2022-12-07T16:57:22.015Z,4.30
2022-12-07T16:59:51.402Z,4.40
2022-12-07T17:02:19.851Z,4.30
2022-12-07T17:04:47.966Z,4.30
2022-12-07T17:07:16.120Z,4.30
2022-12-07T17:09:44.202Z,4.30
2022-12-07T17:12:13.644Z,4.30
2022-12-07T17:15:02.972Z,4.30
2022-12-07T17:17:31.452Z,4.30
2022-12-07T17:19:59.574Z,4.20
2022-12-07T17:22:27.688Z,4.20
2022-12-07T17:24:55.752Z,4.20
2022-12-07T17:27:25.254Z,4.20
2022-12-07T17:29:53.395Z,4.20
2022-12-07T17:32:21.522Z,4.20
2022-12-07T17:34:49.764Z,4.20
2022-12-07T17:37:17.759Z,4.30
2022-12-07T17:39:45.826Z,4.20
2022-12-07T17:42:31.375Z,4.20
2022-12-07T17:45:01.151Z,4.10
2022-12-07T17:47:29.933Z,4.10
2022-12-07T17:50:01.784Z,4.10
2022-12-07T17:52:50.729Z,4.10
2022-12-07T17:55:18.942Z,4.10
2022-12-07T17:57:47.034Z,4.00
2022-12-07T18:00:18.011Z,4.00
2022-12-07T18:02:46.308Z,4.00
2022-12-07T18:05:14.462Z,4.00
2022-12-07T18:07:42.590Z,4.00
2022-12-07T18:10:11.968Z,4.00
2022-12-07T18:12:41.212Z,4.00
2022-12-07T18:15:10.008Z,4.00
2022-12-07T18:17:39.516Z,4.00
2022-12-07T18:20:08.877Z,4.00
2022-12-07T18:22:37.659Z,3.90
2022-12-07T18:25:06.586Z,4.00
2022-12-07T18:27:34.812Z,4.00
2022-12-07T18:30:02.876Z,4.00
2022-12-07T18:32:31.034Z,4.00
2022-12-07T18:35:00.675Z,4.00
2022-12-07T18:37:29.403Z,4.10
2022-12-07T18:39:58.467Z,4.00
2022-12-07T18:42:26.724Z,4.00
2022-12-07T18:44:54.745Z,4.00
2022-12-07T18:47:22.792Z,4.10
2022-12-07T18:49:50.860Z,4.00
2022-12-07T18:52:20.241Z,4.10
2022-12-07T18:54:48.622Z,4.00
2022-12-07T18:57:16.662Z,4.10
2022-12-07T18:59:48.180Z,4.10
2022-12-07T19:02:16.794Z,4.20
2022-12-07T19:04:45.250Z,4.20
2022-12-07T19:07:13.314Z,4.20
2022-12-07T19:09:42.820Z,4.30
2022-12-07T19:12:13.235Z,4.30
2022-12-07T19:14:41.839Z,4.30
2022-12-07T19:17:12.531Z,4.40
2022-12-07T19:19:42.590Z,4.40
2022-12-07T19:22:11.864Z,4.40
2022-12-07T19:24:40.097Z,4.30
2022-12-07T19:27:09.781Z,4.30
2022-12-07T19:29:37.804Z,4.20
2022-12-07T19:32:08.942Z,4.20
2022-12-07T19:34:37.845Z,4.10
2022-12-07T19:44:49.077Z,4.20
2022-12-07T19:47:17.726Z,4.20
2022-12-07T19:49:46.386Z,4.20
2022-12-07T19:52:15.522Z,4.20
2022-12-07T19:54:43.563Z,4.20
2022-12-07T19:57:15.224Z,4.20
2022-12-07T19:59:44.027Z,4.20
2022-12-07T20:02:15.891Z,4.20
2022-12-07T20:04:44.061Z,4.20
2022-12-07T20:07:12.180Z,4.20
2022-12-07T20:09:40.330Z,4.20
2022-12-07T20:12:27.592Z,4.20
2022-12-07T20:14:55.710Z,4.20
2022-12-07T20:17:25.285Z,4.30
2022-12-07T20:19:53.380Z,4.20
2022-12-07T20:22:21.530Z,4.20
2022-12-07T20:24:49.588Z,4.20
2022-12-07T20:27:18.116Z,4.20
2022-12-07T20:29:46.241Z,4.20
2022-12-07T20:32:14.451Z,4.20
2022-12-07T20:34:45.001Z,4.20
2022-12-07T20:37:13.098Z,4.30
2022-12-07T20:39:41.360Z,4.30
2022-12-07T20:42:27.412Z,4.30
2022-12-07T20:44:59.712Z,4.30
2022-12-07T20:47:30.966Z,4.30
2022-12-07T20:50:00.411Z,4.20
2022-12-07T20:52:28.446Z,4.20
2022-12-07T20:54:56.549Z,4.20
2022-12-07T20:57:24.631Z,4.10
2022-12-07T20:59:52.656Z,4.10
2022-12-07T21:02:20.797Z,4.10
2022-12-07T21:04:49.028Z,4.00
2022-12-07T21:07:18.517Z,4.00
2022-12-07T21:09:47.319Z,4.00
2022-12-07T21:12:16.387Z,4.00
2022-12-07T21:14:45.095Z,4.00
2022-12-07T21:17:13.316Z,4.00
2022-12-07T21:19:42.282Z,4.00
2022-12-07T21:22:10.362Z,4.00
2022-12-07T21:24:39.918Z,3.90
2022-12-07T21:27:08.412Z,3.90
2022-12-07T21:29:43.681Z,3.90
2022-12-07T21:32:13.286Z,3.90
2022-12-07T21:34:42.656Z,3.80
2022-12-07T21:37:11.131Z,3.90
2022-12-07T21:39:40.578Z,3.90
2022-12-07T21:42:08.667Z,3.90
2022-12-07T21:44:36.983Z,3.80
2022-12-07T21:47:05.541Z,3.80
2022-12-07T21:49:35.636Z,3.90
2022-12-07T21:52:04.041Z,3.90
2022-12-07T21:54:32.191Z,3.90
2022-12-07T21:57:01.847Z,3.90
2022-12-07T21:59:30.167Z,3.90
2022-12-07T22:01:58.288Z,3.90
2022-12-07T22:04:29.182Z,3.80
2022-12-07T22:06:59.057Z,3.80
2022-12-07T22:09:27.768Z,3.80
2022-12-07T22:11:55.851Z,3.80
2022-12-07T22:14:42.560Z,3.80
2022-12-07T22:17:10.694Z,3.80
2022-12-07T22:19:38.777Z,3.80
2022-12-07T22:22:06.960Z,3.80
2022-12-07T22:24:35.033Z,3.80
2022-12-07T22:27:03.172Z,3.70
2022-12-07T22:29:32.635Z,3.60
2022-12-07T22:32:09.196Z,3.60
2022-12-07T22:34:46.722Z,3.70
2022-12-07T22:37:14.823Z,3.70
2022-12-07T22:39:42.909Z,3.70
2022-12-07T22:42:10.985Z,3.70
2022-12-07T22:44:41.218Z,3.60
2022-12-07T22:47:09.444Z,3.60
2022-12-07T22:49:37.767Z,3.60
2022-12-07T22:52:06.011Z,3.50
2022-12-07T22:54:34.079Z,3.50
2022-12-07T22:57:02.278Z,3.50
2022-12-07T22:59:30.479Z,3.60
2022-12-07T23:01:59.871Z,3.60
2022-12-07T23:04:28.035Z,3.50
2022-12-07T23:06:59.289Z,3.50
2022-12-07T23:09:27.412Z,3.50
2022-12-07T23:12:12.722Z,3.50
2022-12-07T23:14:40.801Z,3.50
2022-12-07T23:17:10.257Z,3.50
2022-12-07T23:19:38.349Z,3.50
2022-12-07T23:22:06.394Z,3.60
2022-12-07T23:24:34.568Z,3.50
2022-12-07T23:27:02.921Z,3.50
2022-12-07T23:29:31.079Z,3.50
2022-12-07T23:31:59.226Z,3.60
2022-12-07T23:34:28.696Z,3.60
2022-12-07T23:36:56.874Z,3.50
2022-12-07T23:39:25.001Z,3.60
2022-12-07T23:41:53.406Z,3.60
2022-12-07T23:44:21.504Z,3.60
2022-12-07T23:46:49.830Z,3.60
2022-12-07T23:49:18.957Z,3.60
2022-12-07T23:51:48.427Z,3.60
2022-12-07T23:54:18.702Z,3.60
2022-12-07T23:56:46.955Z,3.60
2022-12-07T23:59:17.977Z,3.60
